Nordic Freedom — C6UL7 — position and weather

sailwx.info

Track history (hours):
 
Tides and Currents Weather Stations Pressure Air Temp Water Temp Dewpoint Dewpoint Depression Visibility Wind Speed Wind Dir Waves Ship Positions

Nordic Freedom

Last reported at 2017-Dec-07 06:44 UTC. Time now 2018-Jan-19 13:28 UTC.
Position N 04°52' E 000°29'.
Warning: this ship's position is 43 days out of date.

Length 274 m; draft 10 m.

Type: Ship. MMSI: 311817000.

Date/timePositionNaut miles runAvg speedWind from/ knotsBaromVisibWave heightAir tempDewpointWater temp
2017-Dec-07 06:44N 04°52' E 000°29'  
2017-Nov-30 13:10N 05°01' E 000°26'2 8.5
2017-Nov-30 12:58N 05°02' E 000°27'4 8.4
2017-Nov-30 12:30N 05°05' E 000°29'4 8.3
2017-Nov-30 12:01N 05°09' E 000°31'4 8.2
2017-Nov-30 11:30N 05°12' E 000°33'4 8.1
2017-Nov-30 11:00N 05°15' E 000°36'4 8.1
2017-Nov-30 10:29N 05°19' E 000°38'4 7.8
2017-Nov-30 10:00N 05°22' E 000°40'3 2.7
2017-Nov-30 08:47N 05°24' E 000°43'1 1.3
2017-Nov-30 08:17N 05°24' E 000°42'0 1.3
2017-Nov-30 08:01N 05°24' E 000°42'1 1.3
2017-Nov-30 07:30N 05°23' E 000°41'1 1.4
2017-Nov-30 06:47N 05°23' E 000°40'1 1.4
2017-Nov-30 06:25N 05°23' E 000°40'1 1.4
2017-Nov-30 06:00N 05°22' E 000°39'1 1.5
2017-Nov-30 05:11N 05°22' E 000°38'0 1.5
2017-Nov-30 04:59N 05°22' E 000°38'1 1.5
2017-Nov-30 04:07N 05°21' E 000°37'0 1.5
2017-Nov-30 04:00N 05°21' E 000°37'3 1.6
2017-Nov-30 02:01N 05°20' E 000°34'1 1.7
2017-Nov-30 01:23N 05°19' E 000°33'5 1.6
2017-Nov-29 22:33N 05°17' E 000°29'0 1.6
2017-Nov-29 22:23N 05°17' E 000°29'1 1.5
2017-Nov-29 21:55N 05°16' E 000°28'1 1.5
2017-Nov-29 21:21N 05°16' E 000°27'1 1.5
2017-Nov-29 21:00N 05°16' E 000°27'1 1.4
2017-Nov-29 20:31N 05°15' E 000°26'1 1.5
2017-Nov-29 20:01N 05°15' E 000°26'1 1.5
2017-Nov-29 19:30N 05°14' E 000°25'1 1.5
2017-Nov-29 19:01N 05°14' E 000°25'1 1.5
2017-Nov-29 18:30N 05°14' E 000°24'1 1.5
2017-Nov-29 18:00N 05°13' E 000°23'1 1.5
2017-Nov-29 17:30N 05°13' E 000°23'1 1.4
2017-Nov-29 17:01N 05°12' E 000°22'1 1.4
2017-Nov-29 16:31N 05°12' E 000°22'1 1.4
2017-Nov-29 16:01N 05°12' E 000°21'1 1.3
2017-Nov-29 15:31N 05°11' E 000°20'1 1.2
2017-Nov-29 15:00N 05°11' E 000°20'1 1.3
2017-Nov-29 14:30N 05°11' E 000°19'1 1.2
2017-Nov-29 14:00N 05°10' E 000°19'1 1.2
2017-Nov-29 13:19N 05°10' E 000°18'0 1.3
2017-Nov-29 13:01N 05°10' E 000°18'1 1.3
2017-Nov-29 12:29N 05°09' E 000°17'1 1.3
2017-Nov-29 12:00N 05°09' E 000°17'1 1.3
2017-Nov-29 11:31N 05°09' E 000°16'1 1.3
2017-Nov-29 11:01N 05°08' E 000°15'1 1.4
2017-Nov-29 10:31N 05°08' E 000°15'1 1.4
2017-Nov-29 10:01N 05°08' E 000°14'1 1.4
2017-Nov-29 09:30N 05°07' E 000°14'1 1.4
2017-Nov-29 09:00N 05°07' E 000°13'1 1.4
2017-Nov-29 08:30N 05°07' E 000°13'1 1.4
2017-Nov-29 07:58N 05°06' E 000°12'1 1.4
2017-Nov-29 07:30N 05°06' E 000°11'1 1.5
2017-Nov-29 07:01N 05°05' E 000°11'2 1.5
2017-Nov-29 05:35N 05°04' E 000°09'0 1.5
2017-Nov-29 05:26N 05°04' E 000°09'1 1.5
2017-Nov-29 04:59N 05°03' E 000°08'1 1.4
2017-Nov-29 04:30N 05°03' E 000°08'1 1.4
2017-Nov-29 04:00N 05°03' E 000°07'1 1.3
2017-Nov-29 03:31N 05°02' E 000°07'1 1.3
2017-Nov-29 03:00N 05°02' E 000°06'1 1.4
2017-Nov-29 02:30N 05°01' E 000°06'1 1.4
2017-Nov-29 02:01N 05°01' E 000°05'1 1.4
2017-Nov-29 01:31N 05°00' E 000°05'1 1.3
2017-Nov-29 00:46N 04°60' E 000°04'8 1.3
2017-Nov-28 18:37N 04°53' W 000°01'0 1.4
2017-Nov-28 18:25N 04°53' W 000°01'1 1.4
2017-Nov-28 17:59N 04°52' W 000°02'1 1.4
2017-Nov-28 17:31N 04°52' W 000°02'1 1.4
2017-Nov-28 17:00N 04°51' W 000°02'1 1.4
2017-Nov-28 16:30N 04°51' W 000°03'1 1.4
2017-Nov-28 15:44N 04°50' W 000°04'  
Track history (hours):
 
Tides and Currents Weather Stations Pressure Air Temp Water Temp Dewpoint Dewpoint Depression Visibility Wind Speed Wind Dir Waves Ship Positions

Nordic Freedom

Last reported at 2017-Dec-07 06:44 UTC. Time now 2018-Jan-19 13:28 UTC.
Position N 04°52' E 000°29'.
Warning: this ship's position is 43 days out of date.

Length 274 m; draft 10 m.

Type: Ship. MMSI: 311817000.

Date/timePositionNaut miles runAvg speedWind from/ knotsBaromVisibWave heightAir tempDewpointWater temp
2017-Dec-07 06:44N 04°52' E 000°29'  
2017-Nov-30 13:10N 05°01' E 000°26'2 8.5
2017-Nov-30 12:58N 05°02' E 000°27'4 8.4
2017-Nov-30 12:30N 05°05' E 000°29'4 8.3
2017-Nov-30 12:01N 05°09' E 000°31'4 8.2
2017-Nov-30 11:30N 05°12' E 000°33'4 8.1
2017-Nov-30 11:00N 05°15' E 000°36'4 8.1
2017-Nov-30 10:29N 05°19' E 000°38'4 7.8
2017-Nov-30 10:00N 05°22' E 000°40'3 2.7
2017-Nov-30 08:47N 05°24' E 000°43'1 1.3
2017-Nov-30 08:17N 05°24' E 000°42'0 1.3
2017-Nov-30 08:01N 05°24' E 000°42'1 1.3
2017-Nov-30 07:30N 05°23' E 000°41'1 1.4
2017-Nov-30 06:47N 05°23' E 000°40'1 1.4
2017-Nov-30 06:25N 05°23' E 000°40'1 1.4
2017-Nov-30 06:00N 05°22' E 000°39'1 1.5
2017-Nov-30 05:11N 05°22' E 000°38'0 1.5
2017-Nov-30 04:59N 05°22' E 000°38'1 1.5
2017-Nov-30 04:07N 05°21' E 000°37'0 1.5
2017-Nov-30 04:00N 05°21' E 000°37'3 1.6
2017-Nov-30 02:01N 05°20' E 000°34'1 1.7
2017-Nov-30 01:23N 05°19' E 000°33'5 1.6
2017-Nov-29 22:33N 05°17' E 000°29'0 1.6
2017-Nov-29 22:23N 05°17' E 000°29'1 1.5
2017-Nov-29 21:55N 05°16' E 000°28'1 1.5
2017-Nov-29 21:21N 05°16' E 000°27'1 1.5
2017-Nov-29 21:00N 05°16' E 000°27'1 1.4
2017-Nov-29 20:31N 05°15' E 000°26'1 1.5
2017-Nov-29 20:01N 05°15' E 000°26'1 1.5
2017-Nov-29 19:30N 05°14' E 000°25'1 1.5
2017-Nov-29 19:01N 05°14' E 000°25'1 1.5
2017-Nov-29 18:30N 05°14' E 000°24'1 1.5
2017-Nov-29 18:00N 05°13' E 000°23'1 1.5
2017-Nov-29 17:30N 05°13' E 000°23'1 1.4
2017-Nov-29 17:01N 05°12' E 000°22'1 1.4
2017-Nov-29 16:31N 05°12' E 000°22'1 1.4
2017-Nov-29 16:01N 05°12' E 000°21'1 1.3
2017-Nov-29 15:31N 05°11' E 000°20'1 1.2
2017-Nov-29 15:00N 05°11' E 000°20'1 1.3
2017-Nov-29 14:30N 05°11' E 000°19'1 1.2
2017-Nov-29 14:00N 05°10' E 000°19'1 1.2
2017-Nov-29 13:19N 05°10' E 000°18'0 1.3
2017-Nov-29 13:01N 05°10' E 000°18'1 1.3
2017-Nov-29 12:29N 05°09' E 000°17'1 1.3
2017-Nov-29 12:00N 05°09' E 000°17'1 1.3
2017-Nov-29 11:31N 05°09' E 000°16'1 1.3
2017-Nov-29 11:01N 05°08' E 000°15'1 1.4
2017-Nov-29 10:31N 05°08' E 000°15'1 1.4
2017-Nov-29 10:01N 05°08' E 000°14'1 1.4
2017-Nov-29 09:30N 05°07' E 000°14'1 1.4
2017-Nov-29 09:00N 05°07' E 000°13'1 1.4
2017-Nov-29 08:30N 05°07' E 000°13'1 1.4
2017-Nov-29 07:58N 05°06' E 000°12'1 1.4
2017-Nov-29 07:30N 05°06' E 000°11'1 1.5
2017-Nov-29 07:01N 05°05' E 000°11'2 1.5
2017-Nov-29 05:35N 05°04' E 000°09'0 1.5
2017-Nov-29 05:26N 05°04' E 000°09'1 1.5
2017-Nov-29 04:59N 05°03' E 000°08'1 1.4
2017-Nov-29 04:30N 05°03' E 000°08'1 1.4
2017-Nov-29 04:00N 05°03' E 000°07'1 1.3
2017-Nov-29 03:31N 05°02' E 000°07'1 1.3
2017-Nov-29 03:00N 05°02' E 000°06'1 1.4
2017-Nov-29 02:30N 05°01' E 000°06'1 1.4
2017-Nov-29 02:01N 05°01' E 000°05'1 1.4
2017-Nov-29 01:31N 05°00' E 000°05'1 1.3
2017-Nov-29 00:46N 04°60' E 000°04'8 1.3
2017-Nov-28 18:37N 04°53' W 000°01'0 1.4
2017-Nov-28 18:25N 04°53' W 000°01'1 1.4
2017-Nov-28 17:59N 04°52' W 000°02'1 1.4
2017-Nov-28 17:31N 04°52' W 000°02'1 1.4
2017-Nov-28 17:00N 04°51' W 000°02'1 1.4
2017-Nov-28 16:30N 04°51' W 000°03'1 1.4
2017-Nov-28 15:44N 04°50' W 000°04'  

Dump ship's entire track history